createdAt,value
2023-10-28T00:00:22.683Z,92.00
2023-10-28T00:02:24.527Z,91.40
2023-10-28T00:04:26.296Z,89.40
2023-10-28T00:06:28.040Z,89.40
2023-10-28T00:08:29.899Z,89.50
2023-10-28T00:10:33.190Z,89.50
2023-10-28T00:12:35.187Z,89.50
2023-10-28T00:14:38.350Z,89.30
2023-10-28T00:16:40.139Z,89.30
2023-10-28T00:18:41.917Z,89.20
2023-10-28T00:20:49.122Z,89.50
2023-10-28T00:22:54.867Z,89.90
2023-10-28T00:24:59.696Z,89.90
2023-10-28T00:27:01.439Z,89.80
2023-10-28T00:29:03.206Z,89.80
2023-10-28T00:31:05.272Z,90.90
2023-10-28T00:33:07.360Z,91.20
2023-10-28T00:35:09.957Z,91.70
2023-10-28T00:37:13.013Z,91.30
2023-10-28T00:39:15.034Z,91.30
2023-10-28T00:41:18.347Z,92.20
2023-10-28T00:43:23.824Z,92.40
2023-10-28T00:45:25.550Z,92.00
2023-10-28T00:47:27.368Z,91.50
2023-10-28T00:49:30.461Z,91.50
2023-10-28T00:51:33.037Z,92.20
2023-10-28T00:53:34.976Z,92.50
2023-10-28T00:55:36.778Z,92.70
2023-10-28T00:57:43.364Z,92.60
2023-10-28T00:59:45.361Z,92.70
2023-10-28T01:01:47.604Z,92.70
2023-10-28T01:03:49.444Z,92.70
2023-10-28T01:05:51.581Z,92.80
2023-10-28T01:07:53.349Z,92.50
2023-10-28T01:09:55.128Z,92.50
2023-10-28T01:11:56.986Z,92.10
2023-10-28T01:13:59.700Z,92.30
2023-10-28T01:16:01.776Z,92.50
2023-10-28T01:18:03.858Z,92.20
2023-10-28T01:20:06.369Z,91.50
2023-10-28T01:22:08.456Z,91.10
2023-10-28T01:24:10.247Z,91.20
2023-10-28T01:26:13.418Z,91.00
2023-10-28T01:28:15.296Z,90.50
2023-10-28T01:30:17.563Z,90.30
2023-10-28T01:32:19.911Z,90.70
2023-10-28T01:34:23.941Z,89.90
2023-10-28T01:36:25.695Z,89.40
2023-10-28T01:38:27.966Z,88.90
2023-10-28T01:40:30.005Z,88.70
2023-10-28T01:42:31.828Z,88.70
2023-10-28T01:44:36.036Z,89.00
2023-10-28T01:46:37.799Z,88.30
2023-10-28T01:48:39.790Z,88.40
2023-10-28T01:50:42.283Z,87.20
2023-10-28T01:52:44.689Z,87.80
2023-10-28T01:54:46.492Z,87.50
2023-10-28T01:56:48.255Z,87.90
2023-10-28T01:58:50.133Z,87.60
2023-10-28T02:00:51.997Z,87.70
2023-10-28T02:02:56.249Z,87.30
2023-10-28T02:04:59.079Z,86.60
2023-10-28T02:07:01.576Z,86.20
2023-10-28T02:09:04.188Z,86.20
2023-10-28T02:11:08.217Z,86.20
2023-10-28T02:13:10.893Z,86.60
2023-10-28T02:15:12.704Z,86.00
2023-10-28T02:17:15.103Z,85.80
2023-10-28T02:19:18.514Z,85.80
2023-10-28T02:21:21.446Z,85.30
2023-10-28T02:23:23.218Z,85.40
2023-10-28T02:25:25.008Z,85.60
2023-10-28T02:27:26.838Z,85.10
2023-10-28T02:29:28.648Z,85.20
2023-10-28T02:31:30.717Z,85.00
2023-10-28T02:33:32.540Z,84.50
2023-10-28T02:35:35.435Z,84.90
2023-10-28T02:37:37.232Z,84.20
2023-10-28T02:39:39.199Z,84.30
2023-10-28T02:41:41.820Z,84.10
2023-10-28T02:43:43.680Z,83.70
2023-10-28T02:45:45.795Z,83.70
2023-10-28T02:47:47.688Z,83.80
2023-10-28T02:49:49.588Z,83.60
2023-10-28T02:51:51.376Z,83.20
2023-10-28T02:53:53.413Z,83.00
2023-10-28T02:55:55.156Z,82.80
2023-10-28T02:57:56.926Z,83.70
2023-10-28T02:59:58.855Z,82.90
2023-10-28T03:02:00.782Z,82.40
2023-10-28T03:04:02.709Z,83.00
2023-10-28T03:06:05.346Z,83.40
2023-10-28T03:08:07.587Z,83.00
2023-10-28T03:10:11.520Z,82.30
2023-10-28T03:12:15.354Z,82.80
2023-10-28T03:14:18.450Z,83.00
2023-10-28T03:16:20.334Z,83.40
2023-10-28T03:18:22.177Z,82.70
2023-10-28T03:20:24.014Z,82.90
2023-10-28T03:22:25.746Z,83.20
2023-10-28T03:24:27.542Z,83.00
2023-10-28T03:26:29.384Z,83.30
2023-10-28T03:28:31.215Z,83.70
2023-10-28T03:30:33.614Z,83.70
2023-10-28T03:32:35.433Z,84.00
2023-10-28T03:34:37.254Z,83.50
2023-10-28T03:36:39.045Z,83.90
2023-10-28T03:38:40.883Z,83.60
2023-10-28T03:40:42.711Z,83.00
2023-10-28T03:42:44.456Z,83.00
2023-10-28T03:44:47.892Z,82.90
2023-10-28T03:46:50.849Z,83.20
2023-10-28T03:48:52.704Z,83.00
2023-10-28T03:50:58.832Z,83.80
2023-10-28T03:53:00.625Z,83.80
2023-10-28T03:55:02.443Z,83.80
2023-10-28T03:57:04.563Z,83.50
2023-10-28T03:59:06.349Z,83.90
2023-10-28T04:01:08.108Z,83.90
2023-10-28T04:03:10.085Z,83.40
2023-10-28T04:05:11.880Z,83.10
2023-10-28T04:07:13.769Z,83.00
2023-10-28T04:09:15.590Z,82.80
2023-10-28T04:11:17.933Z,82.60
2023-10-28T04:13:19.770Z,82.60
2023-10-28T04:15:21.574Z,82.40
2023-10-28T04:17:25.700Z,82.00
2023-10-28T04:19:27.554Z,82.50
2023-10-28T04:21:30.307Z,82.00
2023-10-28T04:23:32.002Z,82.40
2023-10-28T04:25:33.893Z,81.60
2023-10-28T04:27:35.813Z,82.00
2023-10-28T04:29:37.677Z,82.00
2023-10-28T04:31:41.184Z,81.60
2023-10-28T04:33:44.418Z,81.50
2023-10-28T04:35:46.168Z,81.20
2023-10-28T04:37:47.984Z,80.40
2023-10-28T04:39:50.659Z,80.40
2023-10-28T04:41:53.658Z,80.00
2023-10-28T04:43:55.497Z,79.80
2023-10-28T04:45:57.363Z,80.40
2023-10-28T04:47:59.193Z,79.60
2023-10-28T04:50:01.011Z,79.10
2023-10-28T04:52:03.024Z,79.10
2023-10-28T04:54:05.434Z,79.10
2023-10-28T04:56:09.542Z,79.00
2023-10-28T04:58:11.704Z,79.10
2023-10-28T05:00:14.753Z,79.10
2023-10-28T05:02:16.965Z,79.10
2023-10-28T05:04:19.210Z,79.30
2023-10-28T05:06:20.986Z,80.30
2023-10-28T05:08:22.702Z,79.10
2023-10-28T05:10:24.473Z,79.70
2023-10-28T05:12:26.261Z,79.10
2023-10-28T05:14:28.059Z,79.20
2023-10-28T05:16:29.816Z,79.00
2023-10-28T05:18:31.597Z,79.00
2023-10-28T05:20:36.699Z,79.20
2023-10-28T05:22:43.132Z,78.70
2023-10-28T05:24:45.292Z,79.40
2023-10-28T05:26:47.035Z,78.50
2023-10-28T05:28:48.838Z,79.00
2023-10-28T05:30:50.570Z,78.70
2023-10-28T05:32:52.425Z,78.60
2023-10-28T05:34:54.242Z,78.90
2023-10-28T05:36:56.727Z,80.00
2023-10-28T05:39:00.292Z,79.60
2023-10-28T05:41:02.214Z,79.60
2023-10-28T05:43:04.184Z,78.90
2023-10-28T05:45:08.878Z,78.60
2023-10-28T05:47:13.008Z,79.10
2023-10-28T05:49:15.377Z,79.70
2023-10-28T05:51:17.865Z,79.00
2023-10-28T05:53:19.660Z,78.80
2023-10-28T05:55:23.161Z,79.50
2023-10-28T05:57:25.330Z,78.70
2023-10-28T05:59:27.098Z,78.80
2023-10-28T06:01:28.943Z,80.20
2023-10-28T06:03:30.797Z,80.90
2023-10-28T06:05:32.597Z,81.20
2023-10-28T06:07:34.515Z,81.90
2023-10-28T06:09:36.366Z,82.00
2023-10-28T06:11:38.641Z,82.30
2023-10-28T06:13:40.399Z,82.10
2023-10-28T06:15:42.826Z,82.20
2023-10-28T06:17:46.595Z,81.60
2023-10-28T06:19:48.645Z,81.60
2023-10-28T06:21:51.504Z,81.60
2023-10-28T06:23:53.196Z,81.10
2023-10-28T06:25:56.143Z,81.60
2023-10-28T06:27:58.084Z,81.60
2023-10-28T06:30:00.734Z,81.70
2023-10-28T06:32:05.293Z,82.10
2023-10-28T06:34:07.692Z,81.70
2023-10-28T06:36:10.032Z,82.10
2023-10-28T06:38:12.077Z,81.90
2023-10-28T06:40:14.102Z,81.90
2023-10-28T06:42:15.957Z,82.00
2023-10-28T06:44:19.570Z,82.00
2023-10-28T06:46:21.542Z,81.70
2023-10-28T06:48:23.909Z,82.30
2023-10-28T06:50:25.752Z,82.10
2023-10-28T06:52:28.095Z,82.50
2023-10-28T06:54:29.882Z,82.40
2023-10-28T06:56:31.776Z,82.90
2023-10-28T06:58:33.658Z,83.50
2023-10-28T07:00:35.433Z,83.70
2023-10-28T07:02:37.276Z,82.90
2023-10-28T07:04:39.390Z,83.40
2023-10-28T07:06:41.624Z,82.40
2023-10-28T07:08:44.161Z,82.70
2023-10-28T07:10:45.870Z,82.60
2023-10-28T07:12:47.652Z,82.80
2023-10-28T07:14:49.506Z,82.60
2023-10-28T07:16:52.573Z,82.50
2023-10-28T07:18:54.573Z,82.40
2023-10-28T07:20:56.577Z,82.50
2023-10-28T07:22:58.395Z,82.30
2023-10-28T07:25:00.205Z,81.80
2023-10-28T07:27:05.837Z,81.70
2023-10-28T07:29:09.226Z,81.10
2023-10-28T07:31:11.134Z,81.40
2023-10-28T07:33:14.326Z,82.00
2023-10-28T07:35:18.110Z,81.40
2023-10-28T07:37:20.018Z,80.80
2023-10-28T07:39:21.830Z,81.30
2023-10-28T07:41:23.779Z,81.20
2023-10-28T07:43:25.672Z,80.90
2023-10-28T07:45:27.580Z,80.50
2023-10-28T07:47:29.636Z,80.50
2023-10-28T07:49:31.590Z,81.00
2023-10-28T07:51:33.383Z,80.90
2023-10-28T07:53:35.667Z,80.00
2023-10-28T07:55:39.314Z,79.30
2023-10-28T07:57:41.039Z,79.00
2023-10-28T07:59:43.235Z,79.20
2023-10-28T08:01:44.987Z,79.10
2023-10-28T08:03:47.770Z,78.10
2023-10-28T08:05:49.709Z,77.10
2023-10-28T08:07:52.604Z,76.90
2023-10-28T08:09:54.402Z,77.20
2023-10-28T08:11:56.145Z,76.90
2023-10-28T08:13:58.014Z,75.40
2023-10-28T08:15:59.877Z,74.20
2023-10-28T08:18:02.201Z,75.20
2023-10-28T08:20:07.445Z,75.00
2023-10-28T08:22:09.172Z,74.70
2023-10-28T08:24:13.379Z,73.30
2023-10-28T08:26:19.213Z,74.00
2023-10-28T08:28:21.286Z,73.80
2023-10-28T08:30:23.119Z,73.90
2023-10-28T08:32:24.962Z,74.30
2023-10-28T08:34:27.411Z,74.80
2023-10-28T08:36:32.179Z,74.60
2023-10-28T08:38:35.622Z,73.60
2023-10-28T08:40:37.457Z,73.80
2023-10-28T08:42:39.771Z,73.00
2023-10-28T08:44:43.352Z,73.00
2023-10-28T08:46:46.149Z,71.90
2023-10-28T08:48:48.141Z,72.10
2023-10-28T08:51:00.569Z,71.70
2023-10-28T08:53:04.715Z,71.00
2023-10-28T08:55:11.953Z,71.40
2023-10-28T08:57:15.336Z,71.20
2023-10-28T08:59:17.800Z,71.70
2023-10-28T09:01:29.773Z,71.40
2023-10-28T09:03:34.766Z,71.10
2023-10-28T09:05:36.592Z,70.90
2023-10-28T09:07:38.403Z,70.20
2023-10-28T09:09:41.139Z,69.90
2023-10-28T09:11:42.932Z,69.20
2023-10-28T09:13:48.292Z,70.40
2023-10-28T09:15:50.713Z,70.30
2023-10-28T09:17:52.704Z,69.70
2023-10-28T09:19:54.592Z,68.60
2023-10-28T09:21:56.622Z,67.90
2023-10-28T09:24:02.092Z,68.70
2023-10-28T09:26:04.152Z,68.80
2023-10-28T09:28:08.974Z,67.70
2023-10-28T09:30:14.074Z,68.60
2023-10-28T09:32:19.590Z,68.90
2023-10-28T09:34:25.682Z,66.40
2023-10-28T09:36:29.621Z,66.80
2023-10-28T09:38:31.537Z,67.50
2023-10-28T09:40:33.289Z,66.30
2023-10-28T09:42:37.378Z,65.60
2023-10-28T09:44:39.705Z,66.80
2023-10-28T09:46:46.654Z,66.80
2023-10-28T09:48:50.911Z,65.80
2023-10-28T09:50:53.700Z,63.70
2023-10-28T09:52:58.580Z,64.30
2023-10-28T09:55:06.279Z,61.80
2023-10-28T09:57:10.580Z,62.70
2023-10-28T09:59:20.410Z,63.70
2023-10-28T10:01:49.955Z,62.90
2023-10-28T10:04:10.880Z,63.10
2023-10-28T10:06:13.785Z,62.90
2023-10-28T10:08:23.367Z,61.90
2023-10-28T10:10:45.510Z,62.10
2023-10-28T10:12:51.636Z,63.10
2023-10-28T10:14:54.346Z,63.30
2023-10-28T10:17:01.125Z,61.80
2023-10-28T10:19:15.569Z,61.80
2023-10-28T10:21:22.067Z,61.20
2023-10-28T10:23:24.002Z,61.30
2023-10-28T10:25:42.484Z,61.60
2023-10-28T10:27:45.775Z,60.20
2023-10-28T10:29:47.920Z,58.60
2023-10-28T10:31:56.857Z,59.40
2023-10-28T10:34:35.281Z,59.50
2023-10-28T10:36:42.242Z,59.40
2023-10-28T10:38:44.588Z,60.40
2023-10-28T10:40:49.439Z,58.60
2023-10-28T10:42:51.288Z,58.50
2023-10-28T10:44:53.777Z,57.80
2023-10-28T10:46:59.502Z,58.20
2023-10-28T10:49:01.938Z,58.70
2023-10-28T10:51:04.033Z,57.60
2023-10-28T10:53:05.977Z,57.70
2023-10-28T10:55:08.475Z,57.30
2023-10-28T10:57:10.393Z,58.50
2023-10-28T10:59:12.744Z,58.50
2023-10-28T11:01:16.415Z,57.90
2023-10-28T11:03:18.450Z,56.80
2023-10-28T11:05:20.483Z,56.70
2023-10-28T11:07:22.277Z,55.90
2023-10-28T11:09:24.554Z,56.40
2023-10-28T11:11:26.369Z,57.50
2023-10-28T11:13:28.386Z,56.40
2023-10-28T11:15:33.071Z,56.30
2023-10-28T11:17:34.975Z,56.10
2023-10-28T11:19:36.801Z,56.00
2023-10-28T11:21:41.993Z,56.30
2023-10-28T11:23:44.407Z,56.50
2023-10-28T11:25:49.415Z,55.50
2023-10-28T11:27:53.861Z,54.40
2023-10-28T11:29:58.101Z,54.50
2023-10-28T11:32:07.624Z,54.00
2023-10-28T11:34:09.835Z,53.70
2023-10-28T11:36:11.691Z,53.70
2023-10-28T11:38:13.651Z,53.90
2023-10-28T11:40:15.797Z,53.70
2023-10-28T11:42:19.395Z,53.70
2023-10-28T11:44:28.803Z,54.60
2023-10-28T11:46:30.688Z,55.30
2023-10-28T11:48:35.101Z,54.70
2023-10-28T11:50:37.040Z,55.00
2023-10-28T11:52:39.752Z,53.90
2023-10-28T11:54:41.689Z,53.20
2023-10-28T11:56:43.528Z,53.00
2023-10-28T11:58:45.347Z,53.60
2023-10-28T12:00:51.443Z,53.20
2023-10-28T12:02:53.445Z,52.80
2023-10-28T12:04:55.260Z,53.20
2023-10-28T12:06:59.113Z,53.30
2023-10-28T12:09:02.271Z,54.70
2023-10-28T12:11:04.243Z,52.50
2023-10-28T12:13:06.980Z,53.40
2023-10-28T12:15:10.731Z,52.70
2023-10-28T12:17:13.254Z,54.20
2023-10-28T12:19:15.104Z,53.20
2023-10-28T12:21:18.995Z,53.80
2023-10-28T12:23:20.775Z,52.40
2023-10-28T12:25:22.626Z,53.70
2023-10-28T12:27:24.367Z,53.30
2023-10-28T12:29:26.277Z,52.80
2023-10-28T12:31:28.246Z,52.10
2023-10-28T12:33:30.769Z,52.00
2023-10-28T12:35:32.642Z,51.60
2023-10-28T12:37:34.698Z,52.20
2023-10-28T12:39:37.367Z,52.20
2023-10-28T12:41:39.090Z,52.60
2023-10-28T12:43:43.855Z,52.10
2023-10-28T12:45:45.765Z,52.00
2023-10-28T12:47:49.371Z,51.40
2023-10-28T12:49:51.254Z,51.90
2023-10-28T12:51:57.538Z,51.70
2023-10-28T12:54:01.048Z,51.80
2023-10-28T12:56:04.255Z,51.90
2023-10-28T12:58:06.346Z,51.20
2023-10-28T13:00:11.574Z,50.60
2023-10-28T13:02:14.112Z,51.40
2023-10-28T13:04:17.805Z,50.90
2023-10-28T13:06:20.611Z,51.10
2023-10-28T13:08:23.116Z,51.50
2023-10-28T13:10:25.638Z,51.50
2023-10-28T13:12:27.591Z,50.80
2023-10-28T13:14:29.352Z,51.20
2023-10-28T13:16:31.133Z,51.10
2023-10-28T13:18:32.928Z,51.60
2023-10-28T13:20:34.821Z,50.30
2023-10-28T13:22:36.783Z,50.50
2023-10-28T13:24:39.404Z,50.00
2023-10-28T13:26:42.616Z,50.20
2023-10-28T13:28:49.724Z,50.00
2023-10-28T13:30:51.478Z,49.70
2023-10-28T13:32:56.677Z,49.70
2023-10-28T13:34:59.094Z,50.00
2023-10-28T13:37:00.870Z,50.40
2023-10-28T13:39:02.624Z,49.90
2023-10-28T13:41:04.703Z,50.10
2023-10-28T13:43:08.264Z,50.30
2023-10-28T13:45:11.583Z,50.80
2023-10-28T13:47:15.870Z,51.00
2023-10-28T13:49:21.560Z,49.90
2023-10-28T13:51:23.599Z,49.30
2023-10-28T13:53:25.429Z,50.70
2023-10-28T13:55:28.386Z,50.50
2023-10-28T13:57:30.305Z,50.80
2023-10-28T13:59:32.119Z,50.20
2023-10-28T14:01:35.333Z,50.30
2023-10-28T14:03:37.464Z,50.70
2023-10-28T14:05:39.370Z,51.00
2023-10-28T14:07:41.583Z,51.70
2023-10-28T14:09:44.100Z,51.60
2023-10-28T14:11:46.048Z,51.80
2023-10-28T14:13:47.769Z,51.80
2023-10-28T14:15:49.516Z,51.10
2023-10-28T14:17:51.383Z,50.90
2023-10-28T14:19:53.183Z,51.90
2023-10-28T14:21:55.198Z,52.20
2023-10-28T14:23:57.027Z,49.80
2023-10-28T14:25:58.759Z,49.20
2023-10-28T14:28:00.461Z,49.60
2023-10-28T14:30:02.686Z,49.50
2023-10-28T14:32:05.425Z,49.80
2023-10-28T14:34:11.708Z,50.20
2023-10-28T14:36:13.676Z,50.00
2023-10-28T14:38:15.970Z,50.70
2023-10-28T14:40:17.918Z,50.60
2023-10-28T14:42:19.710Z,51.00
2023-10-28T14:44:21.578Z,50.70
2023-10-28T14:46:23.479Z,51.50
2023-10-28T14:48:25.331Z,51.00
2023-10-28T14:50:28.126Z,50.30
2023-10-28T14:52:31.046Z,50.40
2023-10-28T14:54:32.865Z,50.20
2023-10-28T14:56:35.450Z,50.40
2023-10-28T14:58:38.522Z,50.90
2023-10-28T15:00:46.853Z,50.80
2023-10-28T15:02:48.813Z,51.30
2023-10-28T15:04:51.918Z,51.30
2023-10-28T15:06:53.977Z,51.70
2023-10-28T15:08:55.750Z,51.90
2023-10-28T15:10:57.725Z,52.40
2023-10-28T15:12:59.538Z,52.20
2023-10-28T15:15:01.467Z,53.00
2023-10-28T15:17:03.561Z,53.10
2023-10-28T15:19:05.414Z,54.60
2023-10-28T15:21:17.536Z,53.30
2023-10-28T15:23:19.946Z,55.30
2023-10-28T15:25:21.754Z,54.40
2023-10-28T15:27:23.839Z,55.30
2023-10-28T15:29:25.653Z,56.30
2023-10-28T15:31:29.194Z,57.20
2023-10-28T15:33:30.961Z,56.10
2023-10-28T15:35:32.808Z,55.70
2023-10-28T15:37:35.187Z,57.00
2023-10-28T15:39:36.971Z,57.10
2023-10-28T15:41:38.849Z,57.90
2023-10-28T15:43:41.031Z,59.30
2023-10-28T15:45:42.983Z,59.70
2023-10-28T15:47:44.944Z,60.10
2023-10-28T15:49:46.924Z,61.10
2023-10-28T15:51:48.672Z,60.60
2023-10-28T15:53:50.463Z,57.70
2023-10-28T15:55:52.458Z,60.20
2023-10-28T15:57:54.291Z,61.20
2023-10-28T15:59:56.208Z,62.20
2023-10-28T16:01:58.133Z,63.70
2023-10-28T16:04:00.009Z,64.40
2023-10-28T16:06:01.826Z,65.10
2023-10-28T16:08:03.963Z,65.60
2023-10-28T16:10:06.698Z,66.00
2023-10-28T16:12:08.532Z,65.90
2023-10-28T16:14:11.401Z,65.90
2023-10-28T16:16:13.501Z,65.20
2023-10-28T16:18:15.524Z,65.50
2023-10-28T16:20:17.530Z,65.10
2023-10-28T16:22:19.418Z,66.20
2023-10-28T16:24:21.146Z,66.80
2023-10-28T16:26:23.992Z,67.50
2023-10-28T16:28:26.557Z,68.30
2023-10-28T16:30:28.901Z,68.60
2023-10-28T16:32:31.510Z,68.60
2023-10-28T16:34:33.349Z,69.10
2023-10-28T16:36:35.478Z,68.50
2023-10-28T16:38:37.238Z,68.00
2023-10-28T16:40:40.629Z,67.80
2023-10-28T16:42:43.107Z,67.30
2023-10-28T16:44:44.880Z,66.90
2023-10-28T16:46:47.585Z,67.30
2023-10-28T16:48:49.737Z,67.60
2023-10-28T16:50:51.639Z,68.00
2023-10-28T16:52:53.427Z,68.70
2023-10-28T16:54:55.492Z,69.50
2023-10-28T16:56:57.338Z,69.20
2023-10-28T16:59:00.060Z,69.80
2023-10-28T17:01:05.202Z,70.10
2023-10-28T17:03:07.256Z,70.50
2023-10-28T17:05:09.335Z,70.50
2023-10-28T17:07:11.123Z,70.70
2023-10-28T17:09:13.933Z,71.00
2023-10-28T17:11:17.388Z,71.20
2023-10-28T17:13:19.437Z,72.10
2023-10-28T17:15:21.220Z,72.10
2023-10-28T17:17:23.059Z,72.30
2023-10-28T17:19:25.012Z,72.80
2023-10-28T17:21:26.886Z,72.60
2023-10-28T17:23:28.679Z,72.30
2023-10-28T17:25:31.715Z,71.90
2023-10-28T17:27:33.525Z,72.50
2023-10-28T17:29:35.446Z,72.60
2023-10-28T17:31:37.326Z,71.80
2023-10-28T17:33:39.728Z,71.70
2023-10-28T17:35:44.457Z,72.20
2023-10-28T17:37:49.389Z,72.30
2023-10-28T17:39:53.654Z,72.20
2023-10-28T17:41:55.466Z,72.60
2023-10-28T17:43:57.546Z,72.90
2023-10-28T17:45:59.338Z,72.90
2023-10-28T17:48:02.538Z,73.00
2023-10-28T17:50:04.664Z,72.90
2023-10-28T17:52:06.716Z,73.10
2023-10-28T17:54:09.708Z,73.00
2023-10-28T17:56:11.565Z,73.20
2023-10-28T17:58:13.345Z,73.80
2023-10-28T18:00:17.969Z,73.70
2023-10-28T18:02:21.307Z,74.00
2023-10-28T18:04:23.357Z,74.10
2023-10-28T18:06:27.495Z,73.90
2023-10-28T18:08:29.357Z,74.60
2023-10-28T18:10:31.232Z,74.80
2023-10-28T18:12:33.133Z,75.00
2023-10-28T18:14:35.268Z,75.20
2023-10-28T18:16:37.419Z,75.50
2023-10-28T18:18:40.849Z,75.50
2023-10-28T18:20:46.188Z,75.70
2023-10-28T18:22:48.027Z,76.10
2023-10-28T18:24:49.896Z,76.10
2023-10-28T18:26:52.758Z,75.40
2023-10-28T18:28:54.985Z,75.70
2023-10-28T18:31:03.762Z,75.80
2023-10-28T18:33:05.623Z,76.30
2023-10-28T18:35:08.555Z,75.60
2023-10-28T18:37:10.602Z,75.30
2023-10-28T18:39:12.344Z,75.30
2023-10-28T18:41:14.409Z,75.30
2023-10-28T18:43:16.178Z,75.50
2023-10-28T18:45:17.983Z,75.70
2023-10-28T18:47:20.964Z,75.20
2023-10-28T18:49:22.766Z,75.30
2023-10-28T18:51:25.416Z,75.00
2023-10-28T18:53:27.612Z,75.30
2023-10-28T18:55:30.252Z,75.50
2023-10-28T18:57:32.076Z,75.40
2023-10-28T18:59:33.956Z,75.30
2023-10-28T19:01:35.992Z,75.10
2023-10-28T19:03:39.865Z,75.60
2023-10-28T19:05:42.870Z,75.80
2023-10-28T19:07:47.315Z,75.80
2023-10-28T19:09:49.255Z,75.90
2023-10-28T19:11:51.074Z,75.00
2023-10-28T19:13:53.014Z,75.00
2023-10-28T19:15:54.978Z,75.10
2023-10-28T19:17:56.890Z,75.20
2023-10-28T19:19:59.150Z,74.90
2023-10-28T19:22:00.937Z,74.30
2023-10-28T19:24:03.790Z,73.90
2023-10-28T19:26:05.909Z,73.50
2023-10-28T19:28:08.146Z,73.50
2023-10-28T19:30:10.660Z,73.60
2023-10-28T19:32:12.592Z,73.70
2023-10-28T19:34:16.257Z,73.70
2023-10-28T19:36:18.098Z,73.60
2023-10-28T19:38:19.942Z,73.50
2023-10-28T19:40:21.746Z,73.50
2023-10-28T19:42:25.668Z,73.50
2023-10-28T19:44:27.595Z,73.60
2023-10-28T19:46:29.486Z,73.60
2023-10-28T19:48:31.301Z,73.80
2023-10-28T19:50:33.199Z,73.60
2023-10-28T19:52:34.984Z,73.30
2023-10-28T19:54:36.718Z,73.40
2023-10-28T19:56:38.488Z,73.30
2023-10-28T19:58:42.358Z,73.20
2023-10-28T20:00:44.097Z,73.10
2023-10-28T20:02:46.214Z,73.10
2023-10-28T20:04:48.729Z,72.90
2023-10-28T20:06:50.599Z,72.60
2023-10-28T20:08:52.391Z,72.80
2023-10-28T20:10:54.998Z,73.00
2023-10-28T20:12:56.828Z,73.00
2023-10-28T20:14:58.655Z,73.20
2023-10-28T20:17:01.071Z,73.30
2023-10-28T20:19:02.962Z,73.30
2023-10-28T20:21:04.914Z,73.60
2023-10-28T20:23:06.751Z,73.40
2023-10-28T20:25:09.269Z,73.50
2023-10-28T20:27:11.150Z,73.40
2023-10-28T20:29:14.276Z,73.70
2023-10-28T20:31:16.081Z,73.90
2023-10-28T20:33:17.952Z,73.80
2023-10-28T20:35:19.895Z,73.80
2023-10-28T20:37:21.778Z,74.00
2023-10-28T20:39:26.601Z,73.90
2023-10-28T20:41:29.701Z,74.00
2023-10-28T20:43:31.487Z,73.70
2023-10-28T20:45:33.235Z,73.90
2023-10-28T20:47:35.336Z,73.90
2023-10-28T20:49:39.959Z,74.20
2023-10-28T20:51:43.327Z,74.20
2023-10-28T20:53:45.050Z,74.20
2023-10-28T20:55:47.185Z,74.50
2023-10-28T20:57:49.472Z,74.80
2023-10-28T20:59:51.307Z,75.10
2023-10-28T21:01:53.151Z,75.00
2023-10-28T21:03:55.050Z,75.00
2023-10-28T21:05:57.579Z,75.20
2023-10-28T21:07:59.792Z,75.10
2023-10-28T21:10:01.658Z,75.20
2023-10-28T21:12:09.807Z,75.50
2023-10-28T21:14:11.572Z,75.50
2023-10-28T21:16:13.478Z,75.80
2023-10-28T21:18:15.356Z,76.00
2023-10-28T21:20:17.192Z,76.40
2023-10-28T21:22:19.200Z,76.50
2023-10-28T21:24:21.533Z,76.50
2023-10-28T21:26:23.341Z,76.90
2023-10-28T21:28:26.477Z,77.00
2023-10-28T21:30:28.276Z,77.30
2023-10-28T21:32:32.940Z,77.50
2023-10-28T21:34:34.770Z,77.60
2023-10-28T21:36:36.564Z,77.60
2023-10-28T21:38:38.464Z,78.10
2023-10-28T21:40:42.356Z,78.30
2023-10-28T21:42:44.235Z,78.70
2023-10-28T21:44:46.383Z,79.00
2023-10-28T21:46:48.718Z,79.10
2023-10-28T21:48:50.586Z,79.00
2023-10-28T21:50:52.900Z,79.10
2023-10-28T21:52:54.688Z,79.20
2023-10-28T21:54:56.407Z,79.30
2023-10-28T21:56:58.358Z,79.20
2023-10-28T21:59:00.138Z,79.30
2023-10-28T22:01:02.300Z,79.30
2023-10-28T22:03:04.291Z,79.40
2023-10-28T22:05:06.352Z,79.50
2023-10-28T22:07:08.939Z,79.80
2023-10-28T22:09:10.821Z,79.80
2023-10-28T22:11:12.600Z,80.00
2023-10-28T22:13:15.303Z,80.00
2023-10-28T22:15:17.101Z,80.20
2023-10-28T22:17:18.975Z,80.30
2023-10-28T22:19:21.347Z,80.40
2023-10-28T22:21:23.145Z,80.40
2023-10-28T22:23:25.596Z,80.40
2023-10-28T22:25:27.524Z,80.50
2023-10-28T22:27:29.393Z,80.50
2023-10-28T22:29:31.275Z,80.50
2023-10-28T22:31:33.086Z,80.70
2023-10-28T22:33:35.830Z,80.70
2023-10-28T22:35:37.820Z,80.70
2023-10-28T22:37:39.884Z,81.00
2023-10-28T22:39:43.086Z,81.20
2023-10-28T22:41:45.014Z,81.40
2023-10-28T22:43:47.175Z,81.30
2023-10-28T22:45:49.851Z,81.40
2023-10-28T22:47:52.754Z,81.60
2023-10-28T22:49:54.577Z,81.80
2023-10-28T22:51:56.552Z,81.80
2023-10-28T22:53:58.358Z,82.00
2023-10-28T22:56:00.181Z,82.10
2023-10-28T22:58:02.026Z,82.20
2023-10-28T23:00:05.404Z,82.40
2023-10-28T23:02:08.051Z,82.50
2023-10-28T23:04:10.161Z,82.60
2023-10-28T23:06:12.072Z,82.80
2023-10-28T23:08:13.913Z,82.60
2023-10-28T23:10:16.260Z,82.90
2023-10-28T23:12:18.425Z,83.00
2023-10-28T23:14:21.293Z,83.30
2023-10-28T23:16:23.057Z,83.50
2023-10-28T23:18:24.922Z,83.70
2023-10-28T23:20:28.042Z,83.80
2023-10-28T23:22:30.034Z,84.10
2023-10-28T23:24:32.637Z,84.20
2023-10-28T23:26:34.400Z,84.20
2023-10-28T23:28:36.201Z,84.40
2023-10-28T23:30:38.158Z,84.40
2023-10-28T23:32:40.515Z,84.70
2023-10-28T23:34:42.370Z,85.10
2023-10-28T23:36:44.114Z,85.50
2023-10-28T23:38:46.375Z,85.40
2023-10-28T23:40:48.133Z,85.50
2023-10-28T23:42:50.740Z,85.50
2023-10-28T23:44:52.642Z,85.50
2023-10-28T23:46:54.760Z,85.70
2023-10-28T23:48:56.567Z,85.80
2023-10-28T23:50:58.690Z,85.80
2023-10-28T23:53:00.511Z,85.90
2023-10-28T23:55:02.506Z,86.00
2023-10-28T23:57:04.442Z,86.00
2023-10-28T23:59:06.336Z,85.80
